createdAt,value
2023-04-25T00:01:45.426Z,5.57
2023-04-25T00:04:13.216Z,5.05
2023-04-25T00:06:40.761Z,4.80
2023-04-25T00:09:10.243Z,5.10
2023-04-25T00:11:38.138Z,5.70
2023-04-25T00:14:05.940Z,5.28
2023-04-25T00:16:35.146Z,4.53
2023-04-25T00:19:05.497Z,4.57
2023-04-25T00:21:36.591Z,4.15
2023-04-25T00:24:03.936Z,4.28
2023-04-25T00:26:35.289Z,4.00
2023-04-25T00:29:03.201Z,3.85
2023-04-25T00:31:31.244Z,3.92
2023-04-25T00:33:58.452Z,3.50
2023-04-25T00:36:25.593Z,4.07
2023-04-25T00:38:53.698Z,3.50
2023-04-25T00:41:21.648Z,3.95
2023-04-25T00:43:49.810Z,3.92
2023-04-25T00:46:17.076Z,3.40
2023-04-25T00:48:44.208Z,3.25
2023-04-25T00:51:21.829Z,3.67
2023-04-25T00:53:51.318Z,3.80
2023-04-25T00:56:19.218Z,3.85
2023-04-25T00:58:46.739Z,3.50
2023-04-25T01:01:14.545Z,3.85
2023-04-25T01:03:42.487Z,3.47
2023-04-25T01:06:13.162Z,4.35
2023-04-25T01:08:41.021Z,4.15
2023-04-25T01:11:11.101Z,3.65
2023-04-25T01:13:38.231Z,4.22
2023-04-25T01:16:06.035Z,3.15
2023-04-25T01:18:33.258Z,3.30
2023-04-25T01:21:12.892Z,3.55
2023-04-25T01:23:41.694Z,3.45
2023-04-25T01:26:11.483Z,3.40
2023-04-25T01:28:42.391Z,3.83
2023-04-25T01:31:10.326Z,3.80
2023-04-25T01:33:37.600Z,4.00
2023-04-25T01:36:05.746Z,3.25
2023-04-25T01:38:33.104Z,5.10
2023-04-25T01:41:00.827Z,4.43
2023-04-25T01:43:28.117Z,4.07
2023-04-25T01:45:55.359Z,3.75
2023-04-25T01:48:22.596Z,3.83
2023-04-25T01:50:49.694Z,3.95
2023-04-25T01:53:16.950Z,4.05
2023-04-25T01:55:44.151Z,3.05
2023-04-25T01:58:13.957Z,3.22
2023-04-25T02:00:42.082Z,4.25
2023-04-25T02:03:10.154Z,4.03
2023-04-25T02:05:41.568Z,3.25
2023-04-25T02:08:10.108Z,4.00
2023-04-25T02:10:37.767Z,3.97
2023-04-25T02:13:06.393Z,3.58
2023-04-25T02:15:33.678Z,4.05
2023-04-25T02:18:03.590Z,3.95
2023-04-25T02:20:32.036Z,3.67
2023-04-25T02:22:59.260Z,3.55
2023-04-25T02:25:26.672Z,4.53
2023-04-25T02:27:53.747Z,3.83
2023-04-25T02:30:21.058Z,4.47
2023-04-25T02:32:48.225Z,4.40
2023-04-25T02:35:15.327Z,4.50
2023-04-25T02:37:44.431Z,3.50
2023-04-25T02:40:11.834Z,3.20
2023-04-25T02:42:38.932Z,3.85
2023-04-25T02:45:06.673Z,3.03
2023-04-25T02:47:33.960Z,3.85
2023-04-25T02:50:04.910Z,3.47
2023-04-25T02:52:32.652Z,3.77
2023-04-25T02:54:59.794Z,3.70
2023-04-25T02:57:26.885Z,3.10
2023-04-25T02:59:54.011Z,3.78
2023-04-25T03:02:21.072Z,4.10
2023-04-25T03:04:48.274Z,3.50
2023-04-25T03:07:15.666Z,3.63
2023-04-25T03:09:49.309Z,3.50
2023-04-25T03:12:16.972Z,3.30
2023-04-25T03:14:44.081Z,3.40
2023-04-25T03:17:11.390Z,3.78
2023-04-25T03:19:38.478Z,3.70
2023-04-25T03:22:05.564Z,3.30
2023-04-25T03:24:32.842Z,3.35
2023-04-25T03:26:59.938Z,2.80
2023-04-25T03:29:28.817Z,2.83
2023-04-25T03:31:55.973Z,2.85
2023-04-25T03:34:23.116Z,2.78
2023-04-25T03:36:50.336Z,3.50
2023-04-25T03:39:17.619Z,3.50
2023-04-25T03:41:44.713Z,2.42
2023-04-25T03:44:11.894Z,2.83
2023-04-25T05:04:10.927Z,3.00
2023-04-25T05:06:38.282Z,3.67
2023-04-25T05:09:05.633Z,3.13
2023-04-25T05:11:33.832Z,3.17
2023-04-25T05:14:01.044Z,3.22
2023-04-25T05:16:28.182Z,3.05
2023-04-25T05:18:55.333Z,3.05
2023-04-25T05:21:22.681Z,3.10
2023-04-25T05:23:49.990Z,2.95
2023-04-25T05:26:17.148Z,3.00
2023-04-25T05:28:44.303Z,2.88
2023-04-25T05:31:11.782Z,3.00
2023-04-25T05:33:39.126Z,3.28
2023-04-25T05:36:07.653Z,3.05
2023-04-25T05:38:35.149Z,3.40
2023-04-25T05:41:02.861Z,2.95
2023-04-25T05:43:30.009Z,3.10
2023-04-25T05:45:57.103Z,2.63
2023-04-25T05:48:24.182Z,2.85
2023-04-25T05:50:52.651Z,3.42
2023-04-25T05:53:21.275Z,2.40
2023-04-25T05:55:48.663Z,2.35
2023-04-25T05:58:15.835Z,2.40
2023-04-25T06:00:43.066Z,2.20
2023-04-25T06:03:17.852Z,2.55
2023-04-25T06:05:47.928Z,2.50
2023-04-25T06:08:15.068Z,2.00
2023-04-25T06:10:42.220Z,1.83
2023-04-25T06:13:09.399Z,2.13
2023-04-25T06:15:36.618Z,2.20
2023-04-25T06:18:04.272Z,2.35
2023-04-25T06:20:31.781Z,2.78
2023-04-25T06:22:59.005Z,2.22
2023-04-25T06:25:26.296Z,1.95
2023-04-25T06:27:53.497Z,2.10
2023-04-25T06:30:23.638Z,2.42
2023-04-25T06:32:50.893Z,2.10
2023-04-25T06:35:18.116Z,2.63
2023-04-25T06:37:45.259Z,2.05
2023-04-25T06:40:12.640Z,2.20
2023-04-25T06:42:39.716Z,2.10
2023-04-25T06:45:07.626Z,2.58
2023-04-25T06:47:34.755Z,2.08
2023-04-25T06:50:02.179Z,2.30
2023-04-25T06:52:29.606Z,2.60
2023-04-25T06:54:56.671Z,2.40
2023-04-25T06:57:23.749Z,2.40
2023-04-25T06:59:50.918Z,2.92
2023-04-25T07:02:18.070Z,2.80
2023-04-25T07:04:46.597Z,2.10
2023-04-25T07:07:13.981Z,2.90
2023-04-25T07:09:41.209Z,2.75
2023-04-25T07:12:08.314Z,2.78
2023-04-25T07:14:35.522Z,2.90
2023-04-25T07:17:07.741Z,2.80
2023-04-25T07:19:35.802Z,2.53
2023-04-25T07:22:06.104Z,2.40
2023-04-25T07:24:34.184Z,2.65
2023-04-25T07:27:02.869Z,2.90
2023-04-25T07:29:31.387Z,2.30
2023-04-25T07:31:58.865Z,2.63
2023-04-25T07:34:25.957Z,2.38
2023-04-25T07:36:53.754Z,3.05
2023-04-25T07:39:20.984Z,3.60
2023-04-25T07:41:48.108Z,2.50
2023-04-25T07:44:15.164Z,2.78
2023-04-25T07:46:42.260Z,2.90
2023-04-25T07:49:09.414Z,2.50
2023-04-25T07:51:36.545Z,2.60
2023-04-25T07:54:04.180Z,2.40
2023-04-25T07:56:38.675Z,2.17
2023-04-25T07:59:16.574Z,2.45
2023-04-25T08:01:43.658Z,2.35
2023-04-25T08:04:10.881Z,2.30
2023-04-25T08:06:38.251Z,3.50
2023-04-25T08:09:05.566Z,1.80
2023-04-25T08:11:33.725Z,1.83
2023-04-25T08:14:00.988Z,1.90
2023-04-25T08:16:33.620Z,1.75
2023-04-25T08:19:03.629Z,2.50
2023-04-25T08:21:30.796Z,2.30
2023-04-25T08:23:59.714Z,2.40
2023-04-25T08:26:27.154Z,2.47
2023-04-25T08:28:54.245Z,2.33
2023-04-25T08:31:21.945Z,3.08
2023-04-25T08:33:50.668Z,3.05
2023-04-25T08:36:31.584Z,2.30
2023-04-25T08:39:05.801Z,2.78
2023-04-25T08:41:34.070Z,2.60
2023-04-25T08:44:02.501Z,3.88
2023-04-25T08:46:30.463Z,2.60
2023-04-25T08:49:03.819Z,2.83
2023-04-25T08:51:36.060Z,2.60
2023-04-25T08:54:35.146Z,2.53
2023-04-25T08:57:07.862Z,3.00
2023-04-25T08:59:36.619Z,2.63
2023-04-25T09:02:05.264Z,2.33
2023-04-25T09:04:36.226Z,4.25
2023-04-25T09:07:03.951Z,2.60
2023-04-25T09:09:33.374Z,2.10
2023-04-25T09:12:00.757Z,3.15
2023-04-25T09:14:29.134Z,2.40
2023-04-25T09:17:00.660Z,2.50
2023-04-25T09:22:09.334Z,2.15
2023-04-25T09:24:44.800Z,2.53
2023-04-25T09:27:14.644Z,2.42
2023-04-25T09:29:43.234Z,2.47
2023-04-25T09:32:25.784Z,2.28
2023-04-25T09:34:55.006Z,1.80
2023-04-25T09:37:24.001Z,3.40
2023-04-25T09:39:56.629Z,1.58
2023-04-25T09:42:26.531Z,2.00
2023-04-25T09:44:55.669Z,1.83
2023-04-25T09:47:26.592Z,1.75
2023-04-25T09:49:54.660Z,3.50
2023-04-25T09:52:26.503Z,2.88
2023-04-25T09:54:54.085Z,2.47
2023-04-25T09:57:25.743Z,2.67
2023-04-25T10:02:26.778Z,2.25
2023-04-25T10:04:57.116Z,2.17
2023-04-25T10:07:29.516Z,2.35
2023-04-25T10:10:04.830Z,2.10
2023-04-25T10:12:36.109Z,2.13
2023-04-25T10:15:04.908Z,2.20
2023-04-25T10:17:36.479Z,2.10
2023-04-25T10:22:40.927Z,1.83
2023-04-25T10:25:09.547Z,2.70
2023-04-25T10:27:38.186Z,2.05
2023-04-25T10:30:12.556Z,1.98
2023-04-25T10:32:40.256Z,1.88
2023-04-25T10:35:26.095Z,2.25
2023-04-25T10:38:12.105Z,2.33
2023-04-25T10:40:39.379Z,2.30
2023-04-25T10:43:47.767Z,2.30
2023-04-25T10:46:32.100Z,2.03
2023-04-25T10:49:02.326Z,2.05
2023-04-25T10:51:50.963Z,2.42
2023-04-25T10:54:21.391Z,2.40
2023-04-25T10:56:50.749Z,2.05
2023-04-25T10:59:20.025Z,2.60
2023-04-25T11:01:52.387Z,2.90
2023-04-25T11:04:37.306Z,2.10
2023-04-25T11:07:25.140Z,2.50
2023-04-25T11:09:52.264Z,2.47
2023-04-25T11:12:19.363Z,2.08
2023-04-25T11:14:46.895Z,2.13
2023-04-25T11:17:14.511Z,2.28
2023-04-25T11:19:41.732Z,2.17
2023-04-25T11:22:09.035Z,2.00
2023-04-25T11:24:37.809Z,2.28
2023-04-25T11:27:05.693Z,2.10
2023-04-25T11:29:34.736Z,2.38
2023-04-25T11:32:03.872Z,1.90
2023-04-25T11:34:34.069Z,2.50
2023-04-25T11:37:03.943Z,2.50
2023-04-25T11:39:31.717Z,1.88
2023-04-25T11:41:59.605Z,2.60
2023-04-25T11:44:28.546Z,2.47
2023-04-25T11:46:55.713Z,2.40
2023-04-25T11:49:23.297Z,2.00
2023-04-25T11:51:50.712Z,2.83
2023-04-25T11:54:18.177Z,2.40
2023-04-25T11:56:46.433Z,1.92
2023-04-25T11:59:14.496Z,1.98
2023-04-25T12:01:49.813Z,2.17
2023-04-25T12:04:22.107Z,2.15
2023-04-25T12:06:55.193Z,1.98
2023-04-25T12:09:32.495Z,2.25
2023-04-25T12:12:04.638Z,2.20
2023-04-25T12:14:36.955Z,2.00
2023-04-25T12:17:09.007Z,2.00
2023-04-25T12:19:38.595Z,2.25
2023-04-25T12:22:22.469Z,2.20
2023-04-25T12:24:49.688Z,2.13
2023-04-25T12:27:20.305Z,2.30
2023-04-25T12:29:56.940Z,2.17
2023-04-25T12:32:24.549Z,1.85
2023-04-25T12:34:51.776Z,2.13
2023-04-25T12:37:18.870Z,2.60
2023-04-25T12:39:45.994Z,2.53
2023-04-25T12:42:13.515Z,2.03
2023-04-25T12:44:41.799Z,2.30
2023-04-25T12:47:09.215Z,2.22
2023-04-25T12:49:36.380Z,2.58
2023-04-25T12:52:03.924Z,2.10
2023-04-25T12:54:31.793Z,2.70
2023-04-25T12:56:59.422Z,1.83
2023-04-25T12:59:26.586Z,2.20
2023-04-25T13:01:54.316Z,2.40
2023-04-25T13:04:22.403Z,1.90
2023-04-25T13:06:49.703Z,2.15
2023-04-25T13:09:16.837Z,1.67
2023-04-25T13:11:44.056Z,1.90
2023-04-25T13:14:11.403Z,1.70
2023-04-25T13:16:38.611Z,3.20
2023-04-25T13:19:06.735Z,2.40
2023-04-25T13:21:34.395Z,2.30
2023-04-25T13:24:01.984Z,2.50
2023-04-25T13:26:29.243Z,2.42
2023-04-25T13:28:56.365Z,2.13
2023-04-25T13:31:23.525Z,2.50
2023-04-25T13:33:50.837Z,2.00
2023-04-25T13:36:18.167Z,2.40
2023-04-25T13:38:46.183Z,1.73
2023-04-25T13:41:18.819Z,2.70
2023-04-25T13:43:48.920Z,3.70
2023-04-25T13:46:35.498Z,2.25
2023-04-25T13:49:12.079Z,1.73
2023-04-25T13:51:40.666Z,2.40
2023-04-25T13:54:07.774Z,2.38
2023-04-25T13:56:35.008Z,2.25
2023-04-25T13:59:02.354Z,2.13
2023-04-25T14:01:33.955Z,1.92
2023-04-25T14:04:01.908Z,2.08
2023-04-25T14:06:29.485Z,2.10
2023-04-25T14:08:58.030Z,2.15
2023-04-25T14:11:25.104Z,2.95
2023-04-25T14:13:52.432Z,2.10
2023-04-25T14:16:19.891Z,2.38
2023-04-25T14:18:47.089Z,2.20
2023-04-25T14:21:14.183Z,1.98
2023-04-25T14:23:41.505Z,2.58
2023-04-25T14:26:08.584Z,1.70
2023-04-25T14:28:35.868Z,2.13
2023-04-25T14:31:05.905Z,1.52
2023-04-25T14:33:34.095Z,2.22
2023-04-25T14:36:01.900Z,1.83
2023-04-25T14:38:29.024Z,1.73
2023-04-25T14:40:56.387Z,2.00
2023-04-25T14:43:23.548Z,1.65
2023-04-25T14:45:50.761Z,2.00
2023-04-25T14:48:20.725Z,2.30
2023-04-25T14:50:48.077Z,2.70
2023-04-25T14:53:15.220Z,2.38
2023-04-25T14:55:42.503Z,2.67
2023-04-25T14:58:09.629Z,2.20
2023-04-25T15:00:36.889Z,2.05
2023-04-25T15:03:04.844Z,2.97
2023-04-25T15:05:32.401Z,2.45
2023-04-25T15:07:59.537Z,2.20
2023-04-25T15:10:26.846Z,2.38
2023-04-25T15:12:54.803Z,2.30
2023-04-25T15:15:26.390Z,2.92
2023-04-25T15:17:58.656Z,2.50
2023-04-25T15:20:26.677Z,2.00
2023-04-25T15:22:53.896Z,2.53
2023-04-25T15:25:21.064Z,2.17
2023-04-25T15:27:49.733Z,4.07
2023-04-25T15:30:18.045Z,4.18
2023-04-25T15:32:46.557Z,2.40
2023-04-25T15:35:14.427Z,2.63
2023-04-25T15:37:41.974Z,2.53
2023-04-25T15:40:16.508Z,2.25
2023-04-25T15:42:53.317Z,2.63
2023-04-25T15:45:26.274Z,2.70
2023-04-25T15:47:58.253Z,2.28
2023-04-25T15:50:25.867Z,3.85
2023-04-25T15:52:53.022Z,2.45
2023-04-25T15:55:26.855Z,3.20
2023-04-25T15:57:53.976Z,2.80
2023-04-25T16:00:22.650Z,3.08
2023-04-25T16:02:50.000Z,3.10
2023-04-25T16:05:18.126Z,2.50
2023-04-25T16:07:46.928Z,2.30
2023-04-25T16:10:14.483Z,2.90
2023-04-25T16:12:41.728Z,3.25
2023-04-25T16:15:09.286Z,3.13
2023-04-25T16:17:36.617Z,2.17
2023-04-25T16:20:10.129Z,2.30
2023-04-25T16:22:42.823Z,1.90
2023-04-25T16:25:10.955Z,2.40
2023-04-25T16:27:39.781Z,2.47
2023-04-25T16:30:09.564Z,2.60
2023-04-25T16:32:38.183Z,2.72
2023-04-25T16:35:06.024Z,2.08
2023-04-25T16:37:33.877Z,2.45
2023-04-25T16:40:01.340Z,2.95
2023-04-25T16:42:28.626Z,2.53
2023-04-25T16:44:55.720Z,2.70
2023-04-25T16:47:22.861Z,3.13
2023-04-25T16:49:50.955Z,2.53
2023-04-25T16:52:18.050Z,2.85
2023-04-25T16:54:45.687Z,2.97
2023-04-25T16:57:13.901Z,3.45
2023-04-25T16:59:41.025Z,2.83
2023-04-25T17:02:13.141Z,3.15
2023-04-25T17:04:41.058Z,2.85
2023-04-25T17:07:09.127Z,2.80
2023-04-25T17:09:36.517Z,3.10
2023-04-25T17:12:04.795Z,3.55
2023-04-25T17:14:33.739Z,2.72
2023-04-25T17:17:01.081Z,3.05
2023-04-25T17:19:28.777Z,3.47
2023-04-25T17:21:56.024Z,3.20
2023-04-25T17:24:23.246Z,3.63
2023-04-25T17:26:50.473Z,3.25
2023-04-25T17:29:17.615Z,4.40
2023-04-25T17:31:45.054Z,3.35
2023-04-25T17:34:16.613Z,3.70
2023-04-25T17:36:45.162Z,3.35
2023-04-25T17:39:12.313Z,4.10
2023-04-25T17:41:39.446Z,3.88
2023-04-25T17:44:06.870Z,3.45
2023-04-25T17:46:34.170Z,3.58
2023-04-25T17:49:02.308Z,3.55
2023-04-25T17:51:30.631Z,3.20
2023-04-25T17:53:57.741Z,3.30
2023-04-25T17:56:27.109Z,4.95
2023-04-25T17:58:55.170Z,4.22
2023-04-25T18:01:22.762Z,3.47
2023-04-25T18:03:50.633Z,3.60
2023-04-25T18:06:18.535Z,3.30
2023-04-25T18:08:46.808Z,3.95
2023-04-25T18:11:13.910Z,2.97
2023-04-25T18:13:41.339Z,3.78
2023-04-25T18:16:08.897Z,4.28
2023-04-25T18:18:36.940Z,2.90
2023-04-25T18:21:07.730Z,2.40
2023-04-25T18:23:35.080Z,2.75
2023-04-25T18:26:05.923Z,3.00
2023-04-25T18:28:34.540Z,3.30
2023-04-25T18:31:02.013Z,2.97
2023-04-25T18:33:29.093Z,3.58
2023-04-25T18:35:59.787Z,3.60
2023-04-25T18:41:04.355Z,3.75
2023-04-25T18:43:37.527Z,3.55
2023-04-25T18:46:04.684Z,3.13
2023-04-25T18:48:32.235Z,3.10
2023-04-25T18:50:59.416Z,3.20
2023-04-25T18:53:26.491Z,2.90
2023-04-25T18:55:53.546Z,3.15
2023-04-25T18:58:20.692Z,3.33
2023-04-25T19:00:49.199Z,2.97
2023-04-25T19:03:16.544Z,3.85
2023-04-25T19:05:43.700Z,3.22
2023-04-25T19:08:10.758Z,3.80
2023-04-25T19:10:37.856Z,3.38
2023-04-25T19:13:05.243Z,3.70
2023-04-25T19:15:33.831Z,3.80
2023-04-25T19:18:01.150Z,4.25
2023-04-25T19:20:28.787Z,3.83
2023-04-25T19:22:55.865Z,3.58
2023-04-25T19:25:24.954Z,3.65
2023-04-25T19:27:52.253Z,3.50
2023-04-25T19:30:19.641Z,4.28
2023-04-25T19:32:46.797Z,4.05
2023-04-25T19:35:14.485Z,4.45
2023-04-25T19:37:46.658Z,4.00
2023-04-25T19:40:18.422Z,4.00
2023-04-25T19:42:45.981Z,4.00
2023-04-25T19:45:13.301Z,4.40
2023-04-25T19:47:42.203Z,4.40
2023-04-25T19:50:10.429Z,3.97
2023-04-25T19:52:39.026Z,5.88
2023-04-25T19:55:07.161Z,6.50
2023-04-25T19:57:38.202Z,5.60
2023-04-25T20:00:11.057Z,5.22
2023-04-25T20:02:38.695Z,4.60
2023-04-25T20:05:07.328Z,4.40
2023-04-25T20:07:35.307Z,4.43
2023-04-25T20:10:03.125Z,3.97
2023-04-25T20:12:30.423Z,4.32
2023-04-25T20:14:58.624Z,4.38
2023-04-25T20:17:26.095Z,3.70
2023-04-25T20:19:53.186Z,4.82
2023-04-25T20:22:20.272Z,4.20
2023-04-25T20:24:47.342Z,4.38
2023-04-25T20:27:14.442Z,4.38
2023-04-25T20:29:42.871Z,4.10
2023-04-25T20:32:09.980Z,4.90
2023-04-25T20:34:37.321Z,4.32
2023-04-25T20:37:04.601Z,4.43
2023-04-25T20:39:33.696Z,4.25
2023-04-25T20:42:04.226Z,5.07
2023-04-25T20:44:32.315Z,4.45
2023-04-25T20:46:59.521Z,3.90
2023-04-25T20:49:26.775Z,5.20
2023-04-25T20:51:54.064Z,5.00
2023-04-25T20:54:21.131Z,4.88
2023-04-25T20:56:48.226Z,5.90
2023-04-25T20:59:15.582Z,6.30
2023-04-25T21:01:42.712Z,5.57
2023-04-25T21:04:10.309Z,5.88
2023-04-25T21:06:37.516Z,6.25
2023-04-25T21:09:05.131Z,5.93
2023-04-25T21:11:32.619Z,5.10
2023-04-25T21:13:59.779Z,5.72
2023-04-25T21:16:27.110Z,5.50
2023-04-25T21:18:54.368Z,5.50
2023-04-25T21:21:21.606Z,4.30
2023-04-25T21:23:48.749Z,5.20
2023-04-25T21:26:15.862Z,4.97
2023-04-25T21:28:43.019Z,4.85
2023-04-25T21:31:10.165Z,4.72
2023-04-25T21:33:37.328Z,4.38
2023-04-25T21:36:04.743Z,3.95
2023-04-25T21:38:32.067Z,3.90
2023-04-25T21:40:59.277Z,4.75
2023-04-25T21:43:26.332Z,4.45
2023-04-25T21:46:15.291Z,5.07
2023-04-25T21:48:40.834Z,4.90
2023-04-25T21:51:07.927Z,4.43
2023-04-25T21:53:35.076Z,4.15
2023-04-25T21:56:02.298Z,4.05
2023-04-25T21:58:29.436Z,4.68
2023-04-25T22:00:56.560Z,4.00
2023-04-25T22:03:23.752Z,4.60
2023-04-25T22:05:50.901Z,4.93
2023-04-25T22:08:18.115Z,3.20
2023-04-25T22:10:45.284Z,2.60
2023-04-25T22:13:12.376Z,2.90
2023-04-25T22:15:39.635Z,2.72
2023-04-25T22:18:06.876Z,2.75
2023-04-25T22:20:34.793Z,3.15
2023-04-25T22:23:03.489Z,2.20
2023-04-25T22:25:31.994Z,2.90
2023-04-25T22:27:59.500Z,2.60
2023-04-25T22:30:26.749Z,3.30
2023-04-25T22:32:54.626Z,2.92
2023-04-25T22:35:21.698Z,3.75
2023-04-25T22:37:49.294Z,3.35
2023-04-25T22:40:16.341Z,4.03
2023-04-25T22:42:44.369Z,4.30
2023-04-25T22:45:12.439Z,3.25
2023-04-25T22:47:40.338Z,3.33
2023-04-25T22:50:13.089Z,2.90
2023-04-25T22:52:40.675Z,3.03
2023-04-25T22:55:08.169Z,2.75
2023-04-25T22:57:38.735Z,3.10
2023-04-25T23:00:16.099Z,2.92
2023-04-25T23:02:46.200Z,3.78
2023-04-25T23:05:13.794Z,3.00
2023-04-25T23:07:41.167Z,3.47
2023-04-25T23:10:09.238Z,3.53
2023-04-25T23:12:36.409Z,4.13
2023-04-25T23:15:05.408Z,4.20
2023-04-25T23:17:33.854Z,4.30
2023-04-25T23:20:01.431Z,3.97
2023-04-25T23:22:29.359Z,3.40
2023-04-25T23:24:56.861Z,3.60
2023-04-25T23:27:24.087Z,4.68
2023-04-25T23:29:56.806Z,5.80
2023-04-25T23:32:26.275Z,5.75
2023-04-25T23:34:53.467Z,4.82
2023-04-25T23:37:20.601Z,5.10
2023-04-25T23:39:51.839Z,4.50
2023-04-25T23:42:20.166Z,4.75
2023-04-25T23:44:47.361Z,3.53
2023-04-25T23:47:17.628Z,3.05
2023-04-25T23:49:47.754Z,2.70
2023-04-25T23:52:14.809Z,2.85
2023-04-25T23:54:42.595Z,3.13
2023-04-25T23:57:09.726Z,2.85
2023-04-25T23:59:36.852Z,2.90
